createdAt,value
2019-03-25T00:01:02.814Z,97103.15
2019-03-25T00:03:32.656Z,97098.15
2019-03-25T00:06:02.377Z,97088.50
2019-03-25T00:08:33.278Z,97097.10
2019-03-25T00:11:04.133Z,97089.34
2019-03-25T00:13:35.053Z,97095.21
2019-03-25T00:16:05.910Z,97089.64
2019-03-25T00:18:36.671Z,97088.50
2019-03-25T00:21:07.499Z,97083.22
2019-03-25T00:23:38.314Z,97084.64
2019-03-25T00:26:09.186Z,97072.96
2019-03-25T00:28:40.016Z,97073.83
2019-03-25T00:31:10.803Z,97074.30
2019-03-25T00:33:41.629Z,97068.46
2019-03-25T00:36:14.480Z,97064.91
2019-03-25T00:38:45.278Z,97069.33
2019-03-25T00:41:16.099Z,97058.68
2019-03-25T00:43:47.054Z,97055.60
2019-03-25T00:46:18.086Z,97055.52
2019-03-25T00:48:49.129Z,97051.97
2019-03-25T00:51:20.005Z,97056.39
2019-03-25T00:53:50.823Z,97058.98
2019-03-25T00:56:21.725Z,97054.59
2019-03-25T00:58:52.589Z,97035.81
2019-03-25T01:01:23.758Z,97025.92
2019-03-25T01:03:54.626Z,97033.55
2019-03-25T01:06:25.458Z,97032.79
2019-03-25T01:08:56.327Z,97022.31
2019-03-25T01:11:28.237Z,97020.61
2019-03-25T01:13:59.137Z,97013.69
2019-03-25T01:16:30.043Z,97013.80
2019-03-25T01:19:00.998Z,97018.58
2019-03-25T01:21:31.815Z,97013.85
2019-03-25T01:24:02.620Z,97001.61
2019-03-25T01:26:34.384Z,97018.86
2019-03-25T01:29:05.228Z,97009.88
2019-03-25T01:31:36.052Z,97011.39
2019-03-25T01:34:06.861Z,97001.73
2019-03-25T01:36:37.650Z,97009.88
2019-03-25T01:39:08.540Z,97001.89
2019-03-25T01:41:39.364Z,97010.41
2019-03-25T01:44:10.174Z,97003.71
2019-03-25T01:46:40.961Z,96989.83
2019-03-25T01:49:11.871Z,97004.30
2019-03-25T01:51:42.646Z,96986.97
2019-03-25T01:54:13.449Z,96991.39
2019-03-25T01:56:44.382Z,96996.25
2019-03-25T01:59:15.246Z,96985.92
2019-03-25T02:01:46.093Z,96990.22
2019-03-25T02:04:16.932Z,96992.51
2019-03-25T02:06:47.688Z,96988.88
2019-03-25T02:09:18.495Z,96988.95
2019-03-25T02:11:49.415Z,96994.44
2019-03-25T02:14:20.319Z,96990.53
2019-03-25T02:16:51.137Z,96984.58
2019-03-25T02:19:21.964Z,96986.61
2019-03-25T02:21:52.909Z,96991.75
2019-03-25T02:24:24.744Z,96990.81
2019-03-25T02:26:55.548Z,96988.42
2019-03-25T02:29:26.359Z,96978.76
2019-03-25T02:31:57.881Z,96974.62
2019-03-25T02:34:28.666Z,96980.05
2019-03-25T02:36:59.663Z,96965.70
2019-03-25T02:39:30.469Z,96974.09
2019-03-25T02:42:01.355Z,96972.36
2019-03-25T02:44:32.285Z,96977.64
2019-03-25T02:47:04.140Z,96971.35
2019-03-25T02:49:36.049Z,96971.83
2019-03-25T02:52:06.835Z,96976.14
2019-03-25T02:54:37.637Z,96976.91
2019-03-25T02:57:08.384Z,96964.48
2019-03-25T02:59:39.198Z,96966.48
2019-03-25T03:02:10.074Z,96966.70
2019-03-25T03:04:40.932Z,96959.60
2019-03-25T03:07:11.875Z,96960.36
2019-03-25T03:09:42.722Z,96961.23
2019-03-25T03:12:13.739Z,96959.19
2019-03-25T03:14:44.601Z,96961.81
2019-03-25T03:17:16.546Z,96958.44
2019-03-25T03:19:47.411Z,96967.28
2019-03-25T03:22:18.244Z,96964.49
2019-03-25T03:24:49.016Z,96959.35
2019-03-25T03:27:19.870Z,96965.08
2019-03-25T03:29:50.770Z,96958.09
2019-03-25T03:32:21.653Z,96962.62
2019-03-25T03:34:52.582Z,96968.23
2019-03-25T03:37:24.426Z,96957.51
2019-03-25T03:39:55.241Z,96966.42
2019-03-25T03:42:26.089Z,96964.80
2019-03-25T03:44:56.873Z,96961.53
2019-03-25T03:47:27.733Z,96965.08
2019-03-25T03:49:58.544Z,96966.29
2019-03-25T03:52:29.341Z,96963.72
2019-03-25T03:55:00.320Z,96958.48
2019-03-25T03:57:31.396Z,96966.13
2019-03-25T04:00:02.293Z,96953.99
2019-03-25T04:02:33.372Z,96960.77
2019-03-25T04:05:04.223Z,96965.47
2019-03-25T04:07:35.101Z,96969.49
2019-03-25T04:10:06.231Z,96963.38
2019-03-25T04:12:37.012Z,96960.47
2019-03-25T04:15:07.879Z,96967.98
2019-03-25T04:17:38.645Z,96969.39
2019-03-25T04:20:09.608Z,96968.23
2019-03-25T04:22:40.366Z,96965.47
2019-03-25T04:25:11.202Z,96970.83
2019-03-25T04:27:42.014Z,96974.27
2019-03-25T04:30:12.816Z,96974.63
2019-03-25T04:32:44.623Z,96976.45
2019-03-25T04:35:15.465Z,96976.27
2019-03-25T04:37:46.289Z,96979.52
2019-03-25T04:40:17.161Z,96973.52
2019-03-25T04:42:47.948Z,96978.95
2019-03-25T04:45:18.775Z,96979.34
2019-03-25T04:47:49.613Z,96985.19
2019-03-25T04:50:20.419Z,96991.41
2019-03-25T04:52:51.249Z,96991.88
2019-03-25T04:55:22.127Z,96993.45
2019-03-25T04:57:53.046Z,96993.45
2019-03-25T05:00:35.033Z,96995.55
2019-03-25T05:03:05.847Z,96995.33
2019-03-25T05:05:36.857Z,96989.67
2019-03-25T05:08:07.688Z,96988.84
2019-03-25T05:10:38.538Z,96992.28
2019-03-25T05:13:09.344Z,96987.39
2019-03-25T05:15:40.167Z,96984.42
2019-03-25T05:18:11.005Z,96988.84
2019-03-25T05:20:41.833Z,96994.20
2019-03-25T05:23:12.604Z,96995.55
2019-03-25T05:25:43.427Z,96998.00
2019-03-25T05:28:14.233Z,97002.42
2019-03-25T05:30:45.094Z,97001.84
2019-03-25T05:33:16.427Z,97006.44
2019-03-25T05:35:47.277Z,97000.58
2019-03-25T05:38:18.081Z,96997.81
2019-03-25T05:40:49.333Z,96997.59
2019-03-25T05:43:21.283Z,96995.21
2019-03-25T05:45:52.309Z,96999.91
2019-03-25T05:48:24.151Z,97002.09
2019-03-25T05:50:54.975Z,97003.43
2019-03-25T05:53:25.835Z,96999.16
2019-03-25T05:55:56.647Z,96998.58
2019-03-25T05:58:27.498Z,97004.47
2019-03-25T06:00:58.295Z,97002.84
2019-03-25T06:03:29.127Z,97002.77
2019-03-25T06:06:00.324Z,96995.95
2019-03-25T06:08:33.403Z,96991.83
2019-03-25T06:11:04.281Z,96993.45
2019-03-25T06:13:35.130Z,96989.61
2019-03-25T06:16:05.917Z,96991.94
2019-03-25T06:18:36.761Z,96996.60
2019-03-25T06:21:07.541Z,97001.86
2019-03-25T06:23:38.606Z,96991.83
2019-03-25T06:26:09.452Z,96994.67
2019-03-25T06:28:40.342Z,96994.20
2019-03-25T06:31:11.127Z,96995.91
2019-03-25T06:33:41.946Z,96996.41
2019-03-25T06:36:12.867Z,96993.73
2019-03-25T06:38:43.629Z,96986.05
2019-03-25T06:41:14.486Z,96979.73
2019-03-25T06:43:45.305Z,96980.32
2019-03-25T06:46:16.199Z,96979.73
2019-03-25T06:48:46.998Z,96981.02
2019-03-25T06:51:17.898Z,96978.16
2019-03-25T06:53:53.604Z,96980.08
2019-03-25T06:56:26.523Z,96979.32
2019-03-25T06:58:57.410Z,96977.76
2019-03-25T07:01:28.386Z,96975.80
2019-03-25T07:03:59.480Z,96974.70
2019-03-25T07:06:30.692Z,96974.38
2019-03-25T07:09:01.746Z,96967.87
2019-03-25T07:11:33.938Z,96969.47
2019-03-25T07:14:04.987Z,96965.30
2019-03-25T07:16:36.154Z,96956.66
2019-03-25T07:19:07.218Z,96957.81
2019-03-25T07:21:38.294Z,96963.53
2019-03-25T07:24:09.413Z,96966.61
2019-03-25T07:26:40.598Z,96976.45
2019-03-25T07:29:11.635Z,96973.66
2019-03-25T07:31:42.614Z,96969.07
2019-03-25T07:34:13.654Z,96970.41
2019-03-25T07:36:44.641Z,96967.76
2019-03-25T07:39:15.670Z,96963.62
2019-03-25T07:41:46.674Z,96958.97
2019-03-25T07:44:17.669Z,96960.37
2019-03-25T07:46:48.647Z,96952.27
2019-03-25T07:49:19.682Z,96951.69
2019-03-25T07:51:50.646Z,96943.55
2019-03-25T07:54:21.827Z,96941.38
2019-03-25T07:56:52.946Z,96932.77
2019-03-25T07:59:24.037Z,96933.70
2019-03-25T08:01:55.099Z,96935.52
2019-03-25T08:04:26.216Z,96939.35
2019-03-25T08:06:57.386Z,96933.92
2019-03-25T08:09:28.458Z,96934.10
2019-03-25T08:11:59.561Z,96927.80
2019-03-25T08:14:30.631Z,96927.73
2019-03-25T08:17:02.159Z,96926.07
2019-03-25T08:19:34.287Z,96927.05
2019-03-25T08:22:06.795Z,96922.92
2019-03-25T08:24:37.831Z,96925.02
2019-03-25T08:27:08.938Z,96920.72
2019-03-25T08:29:39.997Z,96922.16
2019-03-25T08:32:08.871Z,96922.71
2019-03-25T08:34:37.788Z,96923.28
2019-03-25T08:37:08.888Z,96922.05
2019-03-25T08:39:40.000Z,96916.81
2019-03-25T08:42:11.175Z,96918.44
2019-03-25T08:44:42.551Z,96920.64
2019-03-25T08:47:13.692Z,96914.60
2019-03-25T08:49:45.785Z,96915.50
2019-03-25T08:52:16.884Z,96913.59
2019-03-25T08:54:47.916Z,96914.42
2019-03-25T08:57:19.078Z,96908.52
2019-03-25T08:59:50.103Z,96909.83
2019-03-25T09:02:21.186Z,96905.63
2019-03-25T09:04:52.239Z,96899.44
2019-03-25T09:07:23.276Z,96892.92
2019-03-25T09:09:54.326Z,96891.77
2019-03-25T09:12:25.328Z,96890.72
2019-03-25T09:14:57.155Z,96891.20
2019-03-25T09:17:28.163Z,96878.56
2019-03-25T09:19:59.252Z,96879.25
2019-03-25T09:22:30.373Z,96872.56
2019-03-25T09:25:01.769Z,96874.08
2019-03-25T09:27:32.895Z,96871.80
2019-03-25T09:30:04.502Z,96872.09
2019-03-25T09:32:35.878Z,96862.36
2019-03-25T09:35:07.479Z,96855.67
2019-03-25T09:37:38.918Z,96854.01
2019-03-25T09:40:10.506Z,96848.88
2019-03-25T09:42:41.511Z,96844.75
2019-03-25T09:45:12.637Z,96838.16
2019-03-25T09:47:43.697Z,96841.48
2019-03-25T09:50:14.806Z,96845.98
2019-03-25T09:52:45.904Z,96839.21
2019-03-25T09:55:17.017Z,96837.08
2019-03-25T09:57:48.037Z,96836.78
2019-03-25T10:00:22.881Z,96829.45
2019-03-25T10:02:53.960Z,96826.66
2019-03-25T10:05:25.371Z,96817.71
2019-03-25T10:07:56.465Z,96812.64
2019-03-25T10:10:27.567Z,96809.27
2019-03-25T10:12:58.800Z,96805.75
2019-03-25T10:15:29.967Z,96801.41
2019-03-25T10:18:01.068Z,96806.52
2019-03-25T10:20:34.513Z,96800.94
2019-03-25T10:23:05.591Z,96797.31
2019-03-25T10:25:36.664Z,96791.38
2019-03-25T10:28:08.923Z,96797.27
2019-03-25T10:30:39.957Z,96785.44
2019-03-25T10:33:12.152Z,96782.06
2019-03-25T10:35:43.231Z,96781.83
2019-03-25T10:38:19.573Z,96777.81
2019-03-25T10:40:47.153Z,96770.45
2019-03-25T10:43:18.324Z,96768.25
2019-03-25T10:45:50.232Z,96767.38
2019-03-25T10:48:21.710Z,96759.82
2019-03-25T10:50:52.763Z,96758.54
2019-03-25T10:53:24.219Z,96755.97
2019-03-25T10:55:55.320Z,96755.75
2019-03-25T10:58:26.495Z,96758.70
2019-03-25T11:00:57.609Z,96763.37
2019-03-25T11:03:28.736Z,96753.80
2019-03-25T11:05:59.777Z,96752.34
2019-03-25T11:08:30.868Z,96756.56
2019-03-25T11:11:01.910Z,96755.80
2019-03-25T11:13:32.943Z,96759.58
2019-03-25T11:16:04.401Z,96764.42
2019-03-25T11:18:35.472Z,96755.05
2019-03-25T11:21:06.582Z,96759.07
2019-03-25T11:23:37.660Z,96756.39
2019-03-25T11:26:08.772Z,96748.63
2019-03-25T11:28:39.848Z,96740.02
2019-03-25T11:31:11.195Z,96744.31
2019-03-25T11:33:42.294Z,96739.54
2019-03-25T11:36:13.448Z,96736.22
2019-03-25T11:38:44.653Z,96721.57
2019-03-25T11:41:16.301Z,96720.91
2019-03-25T11:43:47.355Z,96717.33
2019-03-25T11:46:18.502Z,96713.11
2019-03-25T11:48:49.768Z,96713.16
2019-03-25T11:51:20.896Z,96716.55
2019-03-25T11:53:51.989Z,96707.33
2019-03-25T11:56:24.148Z,96700.05
2019-03-25T11:58:55.320Z,96688.73
2019-03-25T12:01:26.363Z,96680.42
2019-03-25T12:03:57.417Z,96675.34
2019-03-25T12:06:28.504Z,96675.81
2019-03-25T12:08:59.530Z,96671.44
2019-03-25T12:11:30.638Z,96668.68
2019-03-25T12:14:01.669Z,96669.82
2019-03-25T12:16:32.823Z,96662.30
2019-03-25T12:19:04.445Z,96662.77
2019-03-25T12:21:35.456Z,96658.66
2019-03-25T12:24:06.530Z,96654.88
2019-03-25T12:26:37.615Z,96660.64
2019-03-25T12:29:08.682Z,96658.23
2019-03-25T12:31:40.769Z,96650.07
2019-03-25T12:34:11.929Z,96639.23
2019-03-25T12:36:42.900Z,96642.66
2019-03-25T12:39:14.000Z,96642.77
2019-03-25T12:41:45.050Z,96645.45
2019-03-25T12:44:16.200Z,96643.64
2019-03-25T12:46:47.334Z,96649.00
2019-03-25T12:49:18.363Z,96647.89
2019-03-25T12:51:49.532Z,96643.99
2019-03-25T12:54:20.644Z,96650.58
2019-03-25T12:56:51.694Z,96652.78
2019-03-25T12:59:22.742Z,96651.72
2019-03-25T13:01:53.890Z,96657.82
2019-03-25T13:04:24.950Z,96663.66
2019-03-25T13:06:55.980Z,96668.66
2019-03-25T13:09:27.097Z,96672.45
2019-03-25T13:11:58.543Z,96673.20
2019-03-25T13:14:30.167Z,96662.27
2019-03-25T13:17:04.434Z,96663.25
2019-03-25T13:19:36.051Z,96663.99
2019-03-25T13:22:07.193Z,96668.29
2019-03-25T13:24:38.254Z,96656.22
2019-03-25T13:27:09.491Z,96655.27
2019-03-25T13:29:51.771Z,96658.78
2019-03-25T13:32:13.257Z,96660.03
2019-03-25T13:34:44.331Z,96655.27
2019-03-25T13:37:16.522Z,96655.33
2019-03-25T13:39:47.580Z,96652.02
2019-03-25T13:42:18.778Z,96653.27
2019-03-25T13:44:49.883Z,96650.66
2019-03-25T13:47:20.973Z,96654.82
2019-03-25T13:49:52.013Z,96649.34
2019-03-25T13:52:23.103Z,96651.42
2019-03-25T13:54:54.195Z,96652.29
2019-03-25T13:57:25.292Z,96648.14
2019-03-25T14:00:03.311Z,96649.09
2019-03-25T14:02:29.172Z,96655.80
2019-03-25T14:05:00.434Z,96646.06
2019-03-25T14:07:31.509Z,96652.29
2019-03-25T14:10:02.667Z,96651.70
2019-03-25T14:12:34.127Z,96647.08
2019-03-25T14:15:05.371Z,96633.66
2019-03-25T14:17:37.047Z,96643.52
2019-03-25T14:20:08.192Z,96657.68
2019-03-25T14:22:39.342Z,96662.09
2019-03-25T14:25:10.443Z,96659.50
2019-03-25T14:27:41.500Z,96653.66
2019-03-25T14:30:14.718Z,96657.68
2019-03-25T14:32:45.700Z,96654.91
2019-03-25T14:35:16.727Z,96656.25
2019-03-25T14:37:48.002Z,96652.11
2019-03-25T14:40:19.200Z,96652.97
2019-03-25T14:42:50.383Z,96646.66
2019-03-25T14:45:26.367Z,96642.63
2019-03-25T14:47:54.532Z,96651.90
2019-03-25T14:50:26.596Z,96666.53
2019-03-25T14:52:57.954Z,96671.03
2019-03-25T14:55:29.015Z,96678.25
2019-03-25T14:58:00.164Z,96687.25
2019-03-25T15:00:31.326Z,96691.89
2019-03-25T15:03:02.497Z,96696.31
2019-03-25T15:05:33.563Z,96700.81
2019-03-25T15:08:04.722Z,96712.41
2019-03-25T15:10:36.145Z,96710.67
2019-03-25T15:13:07.339Z,96721.28
2019-03-25T15:15:40.987Z,96734.10
2019-03-25T15:18:15.725Z,96733.36
2019-03-25T15:20:44.836Z,96733.86
2019-03-25T15:23:16.781Z,96745.34
2019-03-25T15:25:47.631Z,96745.22
2019-03-25T15:28:18.504Z,96755.56
2019-03-25T15:30:49.302Z,96748.11
2019-03-25T15:33:20.209Z,96749.96
2019-03-25T15:35:53.336Z,96741.88
2019-03-25T15:38:25.513Z,96739.35
2019-03-25T15:40:56.639Z,96744.59
2019-03-25T15:43:27.463Z,96745.42
2019-03-25T15:45:58.354Z,96748.77
2019-03-25T15:48:29.157Z,96743.28
2019-03-25T15:51:00.047Z,96744.75
2019-03-25T15:53:28.953Z,96755.09
2019-03-25T15:56:00.766Z,96755.48
2019-03-25T15:58:31.598Z,96751.06
2019-03-25T16:01:02.424Z,96760.69
2019-03-25T16:03:33.242Z,96751.33
2019-03-25T16:06:04.395Z,96756.70
2019-03-25T16:08:35.380Z,96745.73
2019-03-25T16:11:06.241Z,96747.31
2019-03-25T16:13:38.234Z,96746.56
2019-03-25T16:16:09.156Z,96747.91
2019-03-25T16:18:41.039Z,96748.66
2019-03-25T16:21:11.893Z,96746.44
2019-03-25T16:23:42.761Z,96744.03
2019-03-25T16:26:13.631Z,96739.62
2019-03-25T16:28:44.459Z,96743.05
2019-03-25T16:31:15.269Z,96739.14
2019-03-25T16:33:46.144Z,96744.51
2019-03-25T16:36:16.964Z,96743.05
2019-03-25T16:38:47.802Z,96742.69
2019-03-25T16:41:18.695Z,96742.57
2019-03-25T16:43:49.549Z,96747.19
2019-03-25T16:46:20.616Z,96740.33
2019-03-25T16:48:51.512Z,96741.34
2019-03-25T16:51:22.450Z,96734.38
2019-03-25T16:53:56.015Z,96738.19
2019-03-25T16:56:26.780Z,96737.20
2019-03-25T16:58:57.688Z,96739.27
2019-03-25T17:01:28.568Z,96754.64
2019-03-25T17:03:59.545Z,96750.34
2019-03-25T17:06:30.879Z,96764.16
2019-03-25T17:09:01.767Z,96766.59
2019-03-25T17:11:33.117Z,96773.22
2019-03-25T17:14:04.086Z,96775.39
2019-03-25T17:16:35.008Z,96784.78
2019-03-25T17:19:05.872Z,96797.97
2019-03-25T17:21:36.722Z,96805.98
2019-03-25T17:24:07.610Z,96812.02
2019-03-25T17:26:42.613Z,96829.41
2019-03-25T17:29:11.061Z,96822.86
2019-03-25T17:31:41.921Z,96838.25
2019-03-25T17:34:12.782Z,96848.86
2019-03-25T17:36:43.982Z,96849.25
2019-03-25T17:39:14.794Z,96856.32
2019-03-25T17:41:46.162Z,96869.53
2019-03-25T17:44:16.979Z,96869.42
2019-03-25T17:46:47.797Z,96875.89
2019-03-25T17:49:18.764Z,96879.33
2019-03-25T17:51:49.653Z,96889.59
2019-03-25T17:54:20.525Z,96893.89
2019-03-25T17:56:53.463Z,96896.18
2019-03-25T17:59:24.280Z,96899.84
2019-03-25T18:01:55.152Z,96916.23
2019-03-25T18:04:26.009Z,96921.59
2019-03-25T18:06:57.067Z,96939.80
2019-03-25T18:09:27.935Z,96929.53
2019-03-25T18:11:58.819Z,96945.64
2019-03-25T18:14:31.258Z,96954.55
2019-03-25T18:17:02.150Z,96963.44
2019-03-25T18:19:33.015Z,96964.42
2019-03-25T18:22:03.843Z,96965.66
2019-03-25T18:24:34.773Z,96967.86
2019-03-25T18:27:05.669Z,96975.44
2019-03-25T18:29:38.911Z,96957.99
2019-03-25T18:32:09.833Z,96982.63
2019-03-25T18:34:40.626Z,96987.52
2019-03-25T18:37:11.469Z,96983.37
2019-03-25T18:39:42.284Z,96979.83
2019-03-25T18:42:13.181Z,96986.06
2019-03-25T18:44:44.039Z,96987.77
2019-03-25T18:47:14.971Z,96998.14
2019-03-25T18:49:47.466Z,97014.13
2019-03-25T18:52:18.418Z,97030.24
2019-03-25T18:54:49.199Z,97033.80
2019-03-25T18:57:20.058Z,97030.99
2019-03-25T18:59:50.864Z,97028.20
2019-03-25T19:02:21.650Z,97034.43
2019-03-25T19:04:52.789Z,97032.61
2019-03-25T19:07:25.698Z,97047.10
2019-03-25T19:09:56.511Z,97054.96
2019-03-25T19:12:27.454Z,97061.67
2019-03-25T19:14:59.608Z,97075.45
2019-03-25T19:17:30.251Z,97067.41
2019-03-25T19:20:02.156Z,97085.72
2019-03-25T19:22:33.396Z,97096.94
2019-03-25T19:25:04.299Z,97099.50
2019-03-25T19:27:38.111Z,97109.41
2019-03-25T19:30:10.137Z,97108.31
2019-03-25T19:32:43.297Z,97108.31
2019-03-25T19:35:14.321Z,97114.19
2019-03-25T19:37:45.141Z,97109.07
2019-03-25T19:40:15.905Z,97110.34
2019-03-25T19:42:46.764Z,97117.41
2019-03-25T19:45:17.939Z,97116.82
2019-03-25T19:47:49.041Z,97121.55
2019-03-25T19:50:19.974Z,97119.05
2019-03-25T19:52:50.877Z,97125.77
2019-03-25T19:55:21.815Z,97141.80
2019-03-25T19:57:52.748Z,97154.72
2019-03-25T20:00:38.403Z,97165.16
2019-03-25T20:03:10.918Z,97176.12
2019-03-25T20:05:41.891Z,97182.44
2019-03-25T20:08:12.762Z,97188.20
2019-03-25T20:10:43.601Z,97194.41
2019-03-25T20:13:14.521Z,97197.97
2019-03-25T20:15:46.825Z,97194.22
2019-03-25T20:18:18.054Z,97192.66
2019-03-25T20:20:48.894Z,97192.30
2019-03-25T20:23:19.830Z,97194.98
2019-03-25T20:25:51.127Z,97196.68
2019-03-25T20:28:23.191Z,97207.94
2019-03-25T20:30:55.230Z,97217.69
2019-03-25T20:33:26.110Z,97216.23
2019-03-25T20:35:57.008Z,97216.23
2019-03-25T20:38:28.211Z,97229.59
2019-03-25T20:40:59.164Z,97232.75
2019-03-25T20:43:30.130Z,97241.67
2019-03-25T20:46:01.026Z,97252.89
2019-03-25T20:48:31.946Z,97260.84
2019-03-25T20:51:02.844Z,97274.16
2019-03-25T20:53:33.886Z,97284.06
2019-03-25T20:56:04.909Z,97289.80
2019-03-25T20:58:35.899Z,97294.80
2019-03-25T21:01:06.805Z,97300.43
2019-03-25T21:03:37.814Z,97312.95
2019-03-25T21:06:08.709Z,97313.70
2019-03-25T21:08:39.669Z,97307.36
2019-03-25T21:11:10.672Z,97313.31
2019-03-25T21:13:42.583Z,97324.35
2019-03-25T21:16:13.751Z,97326.85
2019-03-25T21:18:44.789Z,97330.88
2019-03-25T21:21:15.786Z,97337.88
2019-03-25T21:23:46.764Z,97331.28
2019-03-25T21:26:17.517Z,97341.15
2019-03-25T21:28:47.352Z,97351.67
2019-03-25T21:31:17.111Z,97350.33
2019-03-25T21:33:48.203Z,97349.57
2019-03-25T21:36:19.083Z,97354.11
2019-03-25T21:38:49.855Z,97349.57
2019-03-25T21:41:20.650Z,97343.73
2019-03-25T21:43:51.503Z,97339.01
2019-03-25T21:46:22.401Z,97342.56
2019-03-25T21:48:53.352Z,97344.20
2019-03-25T21:51:24.317Z,97360.31
2019-03-25T21:53:55.212Z,97379.12
2019-03-25T21:56:26.080Z,97387.17
2019-03-25T21:58:56.960Z,97383.04
2019-03-25T22:01:27.798Z,97385.62
2019-03-25T22:03:58.666Z,97395.42
2019-03-25T22:06:29.740Z,97397.63
2019-03-25T22:09:01.647Z,97406.16
2019-03-25T22:11:32.956Z,97398.58
2019-03-25T22:14:03.738Z,97406.53
2019-03-25T22:16:34.629Z,97400.79
2019-03-25T22:19:05.498Z,97398.00
2019-03-25T22:21:36.371Z,97394.44
2019-03-25T22:24:09.514Z,97397.52
2019-03-25T22:26:40.379Z,97400.79
2019-03-25T22:29:13.571Z,97405.69
2019-03-25T22:31:44.436Z,97411.54
2019-03-25T22:34:15.357Z,97412.98
2019-03-25T22:36:46.223Z,97412.48
2019-03-25T22:39:16.995Z,97413.25
2019-03-25T22:41:47.851Z,97416.44
2019-03-25T22:44:18.957Z,97413.25
2019-03-25T22:46:49.844Z,97415.56
2019-03-25T22:49:20.767Z,97409.22
2019-03-25T22:51:51.534Z,97416.52
2019-03-25T22:54:22.385Z,97418.36
2019-03-25T22:56:53.130Z,97423.23
2019-03-25T22:59:24.014Z,97424.68
2019-03-25T23:01:54.754Z,97423.81
2019-03-25T23:04:25.594Z,97439.09
2019-03-25T23:06:56.406Z,97445.30
2019-03-25T23:09:27.211Z,97441.78
2019-03-25T23:11:59.685Z,97451.65
2019-03-25T23:14:31.749Z,97460.18
2019-03-25T23:17:02.556Z,97471.91
2019-03-25T23:19:38.506Z,97473.61
2019-03-25T23:22:09.138Z,97481.30
2019-03-25T23:24:39.899Z,97490.60
2019-03-25T23:27:10.672Z,97500.00
2019-03-25T23:29:41.538Z,97502.80
2019-03-25T23:32:12.392Z,97498.27
2019-03-25T23:34:43.510Z,97504.61
2019-03-25T23:37:14.566Z,97505.55
2019-03-25T23:39:45.429Z,97509.59
2019-03-25T23:42:17.880Z,97501.63
2019-03-25T23:44:48.796Z,97507.48
2019-03-25T23:47:19.532Z,97506.53
2019-03-25T23:49:50.392Z,97507.58
2019-03-25T23:52:23.457Z,97511.61
2019-03-25T23:54:54.267Z,97508.92
2019-03-25T23:57:25.108Z,97517.09
2019-03-25T23:59:56.182Z,97518.43
